Time;durP1;ratioP1;P1;durP2;ratioP2;P2;SDS_P1;SDS_P2;PMS_P1;PMS_P2;Temp;Humidity;BMP_temperature;BMP_pressure;BME280_temperature;BME280_humidity;BME280_pressure;Samples;Min_cycle;Max_cycle;Signal;HPM_P1;HPM_P2
2023/04/30 00:01:46;;;;;;;23.90;15.02;;;9.90;91.80;;;;;;5096833;27;20101;-73
2023/04/30 00:04:15;;;;;;;21.27;15.00;;;9.90;91.60;;;;;;5101810;27;20096;-73
2023/04/30 00:06:40;;;;;;;22.48;15.45;;;9.90;91.60;;;;;;5090158;28;21999;-73
2023/04/30 00:09:06;;;;;;;20.35;15.00;;;9.90;91.40;;;;;;5086792;28;20027;-73
2023/04/30 00:11:33;;;;;;;20.15;14.25;;;10.00;91.40;;;;;;5093380;27;20046;-73
2023/04/30 00:13:58;;;;;;;23.58;15.55;;;10.00;91.50;;;;;;5090745;28;20035;-73
2023/04/30 00:16:24;;;;;;;20.67;14.70;;;10.00;91.60;;;;;;5107845;28;20031;-74
2023/04/30 00:18:50;;;;;;;23.50;16.02;;;10.00;91.50;;;;;;5089122;28;20493;-73
2023/04/30 00:21:15;;;;;;;25.00;15.00;;;9.90;91.30;;;;;;5091521;28;20032;-73
2023/04/30 00:23:41;;;;;;;19.05;13.38;;;9.90;91.20;;;;;;5086226;28;20043;-73
2023/04/30 00:26:07;;;;;;;18.55;13.27;;;9.90;90.60;;;;;;5095898;28;20020;-73
2023/04/30 00:28:32;;;;;;;21.63;14.00;;;9.90;90.70;;;;;;5090407;28;20070;-73
2023/04/30 00:30:58;;;;;;;21.20;14.35;;;10.00;90.80;;;;;;5086810;28;20110;-73
2023/04/30 00:33:23;;;;;;;21.75;15.85;;;10.00;91.10;;;;;;5101478;28;20043;-73
2023/04/30 00:35:49;;;;;;;21.52;13.38;;;9.90;90.90;;;;;;5108741;28;20020;-73
2023/04/30 00:38:14;;;;;;;24.58;15.75;;;9.90;90.30;;;;;;5086861;28;20023;-73
2023/04/30 00:40:41;;;;;;;21.02;14.50;;;9.90;90.50;;;;;;5106404;28;20376;-74
2023/04/30 00:43:07;;;;;;;22.02;15.15;;;9.90;90.50;;;;;;5089245;28;20044;-73
2023/04/30 00:45:32;;;;;;;23.25;15.20;;;9.80;90.10;;;;;;5095206;28;20549;-73
2023/04/30 00:47:58;;;;;;;20.77;15.02;;;9.70;90.00;;;;;;5084165;28;20086;-74
2023/04/30 00:50:24;;;;;;;21.77;14.95;;;9.70;89.70;;;;;;5088674;28;20038;-73
2023/04/30 00:52:50;;;;;;;29.10;18.60;;;9.70;89.40;;;;;;5091032;28;20107;-73
2023/04/30 00:55:16;;;;;;;22.35;15.23;;;9.60;89.40;;;;;;5093600;28;20379;-73
2023/04/30 00:57:41;;;;;;;24.48;15.35;;;9.60;88.30;;;;;;5089808;28;20039;-72
2023/04/30 01:00:12;;;;;;;21.92;14.25;;;9.60;87.90;;;;;;5091935;28;20027;-72
2023/04/30 01:02:39;;;;;;;25.35;17.35;;;9.60;87.90;;;;;;5088975;28;20028;-73
2023/04/30 01:05:06;;;;;;;29.15;18.90;;;9.60;88.30;;;;;;5087389;28;20077;-73
2023/04/30 01:07:33;;;;;;;24.50;17.60;;;9.60;88.50;;;;;;5082039;28;20125;-73
2023/04/30 01:09:59;;;;;;;26.33;17.85;;;9.60;88.60;;;;;;5089345;28;20665;-74
2023/04/30 01:13:00;;;;;;;24.48;17.10;;;9.60;88.30;;;;;;5090712;28;20036;-73
2023/04/30 01:15:41;;;;;;;28.08;18.60;;;9.60;88.10;;;;;;5050648;28;20046;-73
2023/04/30 01:18:15;;;;;;;24.35;17.10;;;9.60;88.20;;;;;;5090298;28;20024;-73
2023/04/30 01:20:49;;;;;;;29.58;19.38;;;9.60;88.10;;;;;;5095290;28;20055;-73
2023/04/30 01:23:20;;;;;;;29.38;20.15;;;9.60;88.50;;;;;;5101130;28;20028;-73
2023/04/30 01:26:04;;;;;;;27.85;19.00;;;9.50;88.00;;;;;;5093981;28;20065;-73
2023/04/30 01:28:31;;;;;;;29.23;20.48;;;9.50;88.20;;;;;;5093270;28;20317;-73
2023/04/30 01:30:57;;;;;;;29.75;21.52;;;9.50;87.70;;;;;;5093873;28;20077;-73
2023/04/30 01:33:23;;;;;;;33.10;21.42;;;9.40;87.50;;;;;;5091340;28;20366;-73
2023/04/30 01:36:16;;;;;;;35.85;23.77;;;9.40;87.20;;;;;;5093362;28;20020;-73
2023/04/30 01:39:07;;;;;;;33.85;22.55;;;9.40;86.70;;;;;;5085358;28;20039;-73
2023/04/30 01:42:11;;;;;;;33.08;22.67;;;9.30;86.50;;;;;;5094953;28;20035;-73
2023/04/30 01:44:49;;;;;;;29.67;21.30;;;9.30;86.40;;;;;;5106179;28;20051;-73
2023/04/30 01:47:37;;;;;;;33.22;22.42;;;9.20;86.30;;;;;;5111958;28;20351;-73
2023/04/30 01:50:24;;;;;;;32.35;22.50;;;9.00;85.60;;;;;;5113774;28;20034;-73
2023/04/30 01:52:58;;;;;;;37.20;24.17;;;9.00;84.70;;;;;;5111401;28;20018;-73
2023/04/30 01:55:26;;;;;;;37.63;24.23;;;8.90;83.80;;;;;;5109126;28;20047;-73
2023/04/30 01:57:58;;;;;;;33.80;23.40;;;8.80;83.10;;;;;;5107582;28;20089;-73
2023/04/30 02:00:30;;;;;;;34.40;22.25;;;8.70;82.80;;;;;;5111968;28;20030;-73
2023/04/30 02:02:57;;;;;;;35.83;23.60;;;8.70;81.40;;;;;;5106129;28;20028;-73
2023/04/30 02:05:31;;;;;;;31.77;22.15;;;8.60;80.70;;;;;;5111055;28;20277;-73
2023/04/30 02:07:58;;;;;;;34.65;23.58;;;8.60;79.70;;;;;;5106201;28;20063;-73
2023/04/30 02:10:25;;;;;;;34.50;23.38;;;8.50;79.40;;;;;;5106957;28;20086;-73
2023/04/30 02:12:51;;;;;;;41.63;25.90;;;8.50;78.00;;;;;;5107951;28;20038;-73
2023/04/30 02:15:17;;;;;;;38.67;26.17;;;8.50;77.20;;;;;;5111336;28;20046;-73
2023/04/30 02:17:43;;;;;;;38.42;25.80;;;8.40;77.00;;;;;;5111999;28;20016;-73
2023/04/30 02:20:09;;;;;;;33.03;21.85;;;8.30;77.00;;;;;;5116283;28;20420;-73
2023/04/30 02:22:35;;;;;;;32.05;21.52;;;8.30;76.30;;;;;;5116124;28;20293;-73
2023/04/30 02:25:01;;;;;;;32.35;20.98;;;8.20;75.40;;;;;;5112564;28;20027;-73
2023/04/30 02:27:31;;;;;;;39.58;26.98;;;8.20;76.00;;;;;;5117048;28;20089;-72
2023/04/30 02:29:57;;;;;;;40.45;26.92;;;8.20;73.10;;;;;;5117801;28;20115;-73
2023/04/30 02:32:23;;;;;;;40.22;25.70;;;8.30;73.10;;;;;;5113206;28;20027;-73
2023/04/30 02:34:48;;;;;;;39.20;26.10;;;8.30;73.40;;;;;;5114792;28;20020;-73
2023/04/30 02:37:14;;;;;;;42.38;26.55;;;8.30;72.60;;;;;;5097553;28;20050;-72
2023/04/30 02:39:40;;;;;;;39.08;25.55;;;8.30;73.30;;;;;;5098634;28;20038;-72
2023/04/30 02:42:06;;;;;;;33.85;23.30;;;8.30;74.00;;;;;;5113893;28;20043;-72
2023/04/30 02:44:32;;;;;;;42.42;27.25;;;8.30;73.50;;;;;;5115701;28;20024;-72
2023/04/30 02:46:59;;;;;;;36.33;23.50;;;8.30;73.20;;;;;;5114531;28;20038;-72
2023/04/30 02:49:25;;;;;;;38.15;23.77;;;8.30;73.70;;;;;;5115427;28;20451;-72
2023/04/30 02:51:51;;;;;;;34.30;22.83;;;8.30;73.60;;;;;;5116102;28;20082;-73
2023/04/30 02:54:16;;;;;;;32.80;22.08;;;8.30;73.60;;;;;;5115098;28;20020;-73
2023/04/30 02:56:43;;;;;;;33.40;22.00;;;8.20;73.40;;;;;;5115501;28;20424;-72
2023/04/30 02:59:09;;;;;;;33.10;21.70;;;8.20;73.50;;;;;;5118759;28;20031;-72
2023/04/30 03:01:34;;;;;;;35.13;22.40;;;8.20;72.90;;;;;;5115135;28;20084;-72
2023/04/30 03:04:02;;;;;;;41.20;25.58;;;8.20;73.40;;;;;;5115770;28;20102;-72
2023/04/30 03:06:28;;;;;;;41.58;25.45;;;8.20;73.60;;;;;;5113539;28;20031;-72
2023/04/30 03:08:54;;;;;;;37.10;23.88;;;8.20;73.80;;;;;;5109155;28;20047;-72
2023/04/30 03:11:20;;;;;;;38.25;23.55;;;8.10;73.10;;;;;;5113387;28;20073;-74
2023/04/30 03:13:52;;;;;;;37.50;23.73;;;8.10;72.50;;;;;;5107355;28;20430;-73
2023/04/30 03:16:19;;;;;;;33.92;22.75;;;8.10;72.50;;;;;;5102957;28;20011;-73
2023/04/30 03:18:46;;;;;;;35.33;22.85;;;8.10;72.40;;;;;;5090918;28;20043;-73
2023/04/30 03:21:12;;;;;;;34.85;21.98;;;8.00;73.20;;;;;;5111293;28;20128;-72
2023/04/30 03:23:38;;;;;;;31.52;20.35;;;8.00;73.60;;;;;;5110714;28;20176;-73
2023/04/30 03:26:03;;;;;;;32.83;20.33;;;7.80;74.30;;;;;;5113695;28;20459;-73
2023/04/30 03:28:29;;;;;;;35.03;21.83;;;7.80;73.50;;;;;;5113830;28;20462;-73
2023/04/30 03:30:55;;;;;;;35.20;20.85;;;7.70;73.20;;;;;;5112406;28;20328;-73
2023/04/30 03:33:20;;;;;;;36.15;21.50;;;7.70;73.30;;;;;;5103102;28;20453;-73
2023/04/30 03:35:49;;;;;;;38.22;23.08;;;7.60;72.70;;;;;;5109390;28;20477;-73
2023/04/30 03:38:14;;;;;;;35.55;22.00;;;7.50;73.30;;;;;;5107286;28;20053;-73
2023/04/30 03:40:40;;;;;;;38.20;23.48;;;7.40;73.60;;;;;;5095190;28;20444;-73
2023/04/30 03:43:06;;;;;;;37.42;22.00;;;7.30;74.20;;;;;;5115299;28;20055;-73
2023/04/30 03:45:31;;;;;;;37.47;22.88;;;7.20;73.30;;;;;;5110678;28;20415;-73
2023/04/30 03:47:57;;;;;;;29.35;19.20;;;7.00;73.50;;;;;;5113456;28;20032;-73
2023/04/30 03:50:22;;;;;;;40.17;23.63;;;7.00;72.70;;;;;;5114494;28;20019;-73
2023/04/30 03:52:48;;;;;;;35.80;21.25;;;6.90;72.20;;;;;;5110570;28;20026;-72
2023/04/30 03:55:14;;;;;;;34.60;20.73;;;6.80;70.90;;;;;;5096216;28;20035;-73
2023/04/30 03:57:40;;;;;;;36.75;20.58;;;6.70;71.90;;;;;;5108964;28;20038;-73
2023/04/30 04:00:09;;;;;;;33.65;21.23;;;6.60;70.90;;;;;;5107239;28;20031;-72
2023/04/30 04:02:36;;;;;;;32.05;19.50;;;6.50;71.30;;;;;;5108022;28;20149;-72
2023/04/30 04:05:02;;;;;;;33.83;20.08;;;6.50;68.90;;;;;;5096207;28;20463;-72
2023/04/30 04:07:31;;;;;;;31.73;18.77;;;6.40;69.00;;;;;;5110300;28;20217;-71
2023/04/30 04:09:56;;;;;;;29.50;18.33;;;6.40;68.80;;;;;;5114873;28;20048;-72
2023/04/30 04:12:22;;;;;;;34.17;19.17;;;6.30;69.10;;;;;;5113876;28;20101;-72
2023/04/30 04:14:48;;;;;;;26.83;17.30;;;6.30;68.50;;;;;;5106855;28;20024;-72
2023/04/30 04:17:13;;;;;;;30.08;18.35;;;6.20;67.60;;;;;;5115479;28;20031;-73
2023/04/30 04:19:39;;;;;;;28.02;16.98;;;6.20;68.10;;;;;;5114641;28;20028;-73
2023/04/30 04:22:05;;;;;;;29.33;18.38;;;6.10;68.00;;;;;;5089082;28;20054;-73
2023/04/30 04:24:31;;;;;;;26.15;16.30;;;6.10;67.70;;;;;;5107405;28;20050;-73
2023/04/30 04:26:57;;;;;;;28.73;17.25;;;6.10;66.80;;;;;;5114230;28;20114;-73
2023/04/30 04:29:22;;;;;;;25.63;15.10;;;6.00;67.40;;;;;;5111862;28;20038;-71
2023/04/30 04:31:49;;;;;;;28.90;17.25;;;6.00;67.20;;;;;;5112381;28;20390;-71
2023/04/30 04:34:15;;;;;;;29.13;16.35;;;6.00;66.80;;;;;;5111270;28;20503;-71
2023/04/30 04:36:41;;;;;;;26.65;15.63;;;6.00;66.40;;;;;;5113166;28;20023;-72
2023/04/30 04:39:07;;;;;;;28.27;16.52;;;6.00;65.90;;;;;;5106299;28;20046;-74
2023/04/30 04:41:36;;;;;;;25.92;16.45;;;6.00;66.40;;;;;;5109946;28;20020;-73
2023/04/30 04:44:03;;;;;;;25.02;14.95;;;6.00;65.90;;;;;;5108469;28;20501;-72
2023/04/30 04:46:30;;;;;;;23.25;15.18;;;6.00;66.50;;;;;;5111803;28;20020;-72
2023/04/30 04:48:56;;;;;;;25.45;16.25;;;6.00;65.30;;;;;;5113474;28;20031;-72
2023/04/30 04:51:23;;;;;;;37.40;22.95;;;6.10;65.00;;;;;;5094915;28;20408;-71
2023/04/30 04:53:49;;;;;;;32.03;20.02;;;6.10;65.90;;;;;;5110033;28;20020;-72
2023/04/30 04:56:14;;;;;;;27.08;16.98;;;6.10;65.30;;;;;;5097563;28;20028;-72
2023/04/30 04:58:41;;;;;;;26.25;16.55;;;6.20;64.70;;;;;;5110229;28;20329;-73
2023/04/30 05:01:08;;;;;;;30.85;19.88;;;6.30;64.00;;;;;;5112412;28;20027;-74
2023/04/30 05:03:35;;;;;;;27.50;17.52;;;6.40;63.70;;;;;;5111334;28;20027;-72
2023/04/30 05:06:02;;;;;;;28.60;18.17;;;6.60;63.80;;;;;;5110244;28;20023;-72
2023/04/30 05:08:27;;;;;;;26.10;17.95;;;6.80;63.70;;;;;;5091389;28;20126;-73
2023/04/30 05:10:53;;;;;;;25.45;17.27;;;7.00;64.20;;;;;;5107959;28;20157;-72
2023/04/30 05:13:18;;;;;;;25.60;16.40;;;7.20;66.70;;;;;;5106676;28;20039;-72
2023/04/30 05:15:44;;;;;;;24.48;16.17;;;7.40;69.60;;;;;;5108260;28;20399;-72
2023/04/30 05:18:10;;;;;;;23.48;15.55;;;7.40;72.40;;;;;;5108840;28;20316;-72
2023/04/30 05:20:35;;;;;;;24.40;15.68;;;7.50;74.10;;;;;;5109863;28;20062;-73
2023/04/30 05:23:02;;;;;;;24.92;16.02;;;7.70;77.30;;;;;;5110712;28;20385;-73
2023/04/30 05:25:28;;;;;;;23.75;14.35;;;7.80;80.70;;;;;;5089284;28;20031;-72
2023/04/30 05:27:55;;;;;;;22.65;14.63;;;7.90;84.00;;;;;;5110500;28;20077;-74
2023/04/30 05:30:20;;;;;;;20.70;13.93;;;8.00;84.90;;;;;;5094209;28;20111;-73
2023/04/30 05:32:49;;;;;;;18.92;13.27;;;8.10;87.30;;;;;;5113141;28;20110;-73
2023/04/30 05:35:16;;;;;;;20.20;12.60;;;8.20;88.70;;;;;;5100169;28;20332;-73
2023/04/30 05:37:41;;;;;;;20.90;12.80;;;8.30;90.40;;;;;;5112208;28;20046;-73
2023/04/30 05:40:09;;;;;;;18.05;12.02;;;8.50;91.40;;;;;;5115438;28;20036;-73
2023/04/30 05:42:37;;;;;;;17.38;12.00;;;8.50;91.60;;;;;;5107220;28;20436;-72
2023/04/30 05:45:03;;;;;;;18.02;12.15;;;8.50;91.40;;;;;;5092563;28;20041;-72
2023/04/30 05:47:28;;;;;;;18.70;11.35;;;8.70;93.80;;;;;;5104567;28;20080;-73
2023/04/30 05:49:54;;;;;;;16.13;10.98;;;8.80;93.70;;;;;;5103989;28;20027;-72
2023/04/30 05:52:20;;;;;;;15.20;10.38;;;8.90;94.00;;;;;;5109082;28;20115;-72
2023/04/30 05:54:47;;;;;;;18.75;11.82;;;9.00;96.10;;;;;;5104272;28;20905;-72
2023/04/30 05:57:12;;;;;;;16.80;11.50;;;9.20;98.00;;;;;;5101127;28;20020;-72
2023/04/30 05:59:38;;;;;;;17.02;11.98;;;9.50;98.00;;;;;;5113839;28;20404;-72
2023/04/30 06:02:04;;;;;;;18.85;12.93;;;9.60;98.00;;;;;;5104860;28;20501;-73
2023/04/30 06:04:30;;;;;;;18.98;11.50;;;9.70;98.00;;;;;;5100086;28;20383;-72
2023/04/30 06:06:56;;;;;;;15.85;12.00;;;9.90;98.00;;;;;;5108852;28;20059;-72
2023/04/30 06:09:21;;;;;;;17.35;12.23;;;10.10;98.00;;;;;;5111099;28;20067;-72
2023/04/30 06:11:49;;;;;;;17.13;11.85;;;10.30;98.00;;;;;;5109948;28;20023;-73
2023/04/30 06:14:16;;;;;;;16.45;11.75;;;10.30;98.00;;;;;;5114421;28;20023;-72
2023/04/30 06:16:43;;;;;;;17.80;11.73;;;10.50;98.00;;;;;;5113154;28;20024;-72
2023/04/30 06:19:08;;;;;;;15.50;11.32;;;10.60;98.00;;;;;;5091532;28;20016;-73
2023/04/30 06:21:34;;;;;;;17.02;11.98;;;10.70;98.00;;;;;;5093771;28;20077;-73
2023/04/30 06:24:00;;;;;;;17.35;12.43;;;10.60;98.00;;;;;;5078480;28;20059;-73
2023/04/30 06:26:26;;;;;;;17.52;11.40;;;10.70;98.00;;;;;;5111725;28;20077;-73
2023/04/30 06:28:51;;;;;;;16.75;11.60;;;10.70;98.00;;;;;;5111825;28;20098;-72
2023/04/30 06:31:17;;;;;;;17.23;12.20;;;10.90;98.00;;;;;;5110772;28;20119;-72
2023/04/30 06:33:42;;;;;;;16.02;11.18;;;11.20;98.00;;;;;;5109271;28;20020;-73
2023/04/30 06:36:08;;;;;;;17.70;11.70;;;11.40;97.90;;;;;;5092360;28;20049;-75
2023/04/30 06:38:34;;;;;;;15.75;11.73;;;11.60;97.20;;;;;;5106523;28;20024;-73
2023/04/30 06:40:59;;;;;;;14.02;10.95;;;11.70;97.00;;;;;;5112286;28;20057;-72
2023/04/30 06:43:25;;;;;;;15.05;11.10;;;11.80;96.70;;;;;;5111933;28;20044;-72
2023/04/30 06:45:50;;;;;;;14.90;11.05;;;11.80;96.20;;;;;;5110783;28;20024;-73
2023/04/30 06:48:16;;;;;;;15.00;10.93;;;11.60;96.30;;;;;;5109084;28;20024;-73
2023/04/30 06:50:44;;;;;;;15.02;10.43;;;11.70;96.60;;;;;;5108637;28;20039;-73
2023/04/30 06:53:13;;;;;;;15.70;11.30;;;11.80;96.00;;;;;;5087247;28;20012;-73
2023/04/30 06:55:40;;;;;;;15.80;10.77;;;11.90;95.90;;;;;;5092981;28;20016;-73
2023/04/30 06:58:06;;;;;;;14.75;10.48;;;11.90;96.00;;;;;;5112744;28;20031;-73
2023/04/30 07:00:32;;;;;;;14.10;10.02;;;12.00;95.80;;;;;;5105191;28;20411;-73
2023/04/30 07:03:02;;;;;;;14.50;10.48;;;12.20;95.40;;;;;;5108415;28;20052;-73
2023/04/30 07:05:31;;;;;;;15.65;10.77;;;12.20;95.00;;;;;;5112882;28;20293;-73
2023/04/30 07:07:57;;;;;;;14.48;9.80;;;12.30;95.30;;;;;;5113287;28;20031;-73
2023/04/30 07:10:23;;;;;;;14.15;9.68;;;12.40;94.60;;;;;;5116031;28;20032;-73
2023/04/30 07:12:49;;;;;;;13.68;9.77;;;12.50;93.90;;;;;;5113956;28;20028;-73
2023/04/30 07:15:14;;;;;;;13.30;9.40;;;12.60;93.90;;;;;;5116460;28;20096;-73
2023/04/30 07:17:40;;;;;;;13.60;9.55;;;12.80;93.40;;;;;;5113539;28;20415;-73
2023/04/30 07:20:07;;;;;;;12.88;9.45;;;13.20;92.60;;;;;;5111126;28;20019;-73
2023/04/30 07:22:33;;;;;;;13.05;9.25;;;13.60;92.30;;;;;;5111809;28;20107;-73
2023/04/30 07:24:59;;;;;;;11.50;8.63;;;13.80;90.70;;;;;;5111467;28;20111;-73
2023/04/30 07:27:28;;;;;;;11.13;8.20;;;13.50;91.20;;;;;;5097738;28;20036;-73
2023/04/30 07:29:54;;;;;;;11.82;8.48;;;13.80;90.80;;;;;;5109019;28;20028;-73
2023/04/30 07:32:20;;;;;;;11.20;7.68;;;14.00;89.70;;;;;;5115020;28;20035;-73
2023/04/30 07:34:46;;;;;;;12.82;8.15;;;14.10;89.80;;;;;;5115758;28;20039;-73
2023/04/30 07:37:12;;;;;;;10.55;7.18;;;14.40;89.60;;;;;;5113315;28;20098;-73
2023/04/30 07:39:37;;;;;;;10.15;7.22;;;14.50;89.00;;;;;;5114240;28;20035;-73
2023/04/30 07:42:04;;;;;;;10.50;6.90;;;14.70;87.10;;;;;;5113684;28;20331;-73
2023/04/30 07:44:30;;;;;;;10.43;7.50;;;14.90;86.20;;;;;;5113013;28;20032;-73
2023/04/30 07:46:56;;;;;;;10.40;7.63;;;14.90;86.40;;;;;;5115612;28;20031;-73
2023/04/30 07:49:21;;;;;;;8.38;6.13;;;14.80;86.50;;;;;;5114109;28;20023;-73
2023/04/30 07:51:47;;;;;;;8.85;6.15;;;14.90;86.30;;;;;;5112611;28;20019;-73
2023/04/30 07:54:13;;;;;;;7.93;5.75;;;15.20;85.30;;;;;;5112744;28;20072;-73
2023/04/30 07:56:39;;;;;;;8.80;6.53;;;15.40;84.70;;;;;;5115058;28;20128;-73
2023/04/30 07:59:05;;;;;;;7.45;5.78;;;15.40;84.50;;;;;;5110758;28;20419;-73
2023/04/30 08:01:31;;;;;;;9.63;6.85;;;15.40;83.90;;;;;;5109440;28;20023;-73
2023/04/30 08:03:56;;;;;;;8.68;5.88;;;15.70;84.40;;;;;;5094669;28;20023;-73
2023/04/30 08:06:22;;;;;;;7.75;5.80;;;15.60;83.10;;;;;;5112457;28;20024;-73
2023/04/30 08:08:48;;;;;;;7.85;5.43;;;15.60;83.00;;;;;;5108965;28;20018;-73
2023/04/30 08:11:14;;;;;;;7.65;5.70;;;16.10;83.00;;;;;;5114864;28;20405;-73
2023/04/30 08:13:41;;;;;;;9.30;6.03;;;16.20;82.20;;;;;;5111588;28;20027;-73
2023/04/30 08:16:06;;;;;;;8.40;5.57;;;16.20;80.50;;;;;;5096409;28;20111;-73
2023/04/30 08:18:32;;;;;;;6.45;4.70;;;16.40;81.40;;;;;;5111935;28;20122;-73
2023/04/30 08:20:59;;;;;;;9.07;5.97;;;16.40;81.30;;;;;;5115131;28;20019;-73
2023/04/30 08:23:25;;;;;;;7.28;5.40;;;16.50;79.70;;;;;;5108788;28;20034;-73
2023/04/30 08:25:51;;;;;;;8.30;5.07;;;16.40;80.00;;;;;;5115358;28;20035;-73
2023/04/30 08:28:17;;;;;;;6.47;4.80;;;16.80;79.90;;;;;;5110629;28;20098;-73
2023/04/30 08:30:43;;;;;;;8.55;5.60;;;17.30;78.40;;;;;;5112349;28;20042;-73
2023/04/30 08:33:08;;;;;;;7.10;4.80;;;17.70;77.20;;;;;;5112379;28;20024;-73
2023/04/30 08:35:34;;;;;;;6.90;5.10;;;17.70;75.70;;;;;;5110364;28;20100;-73
2023/04/30 08:38:00;;;;;;;8.07;5.20;;;17.80;75.90;;;;;;5106230;28;20073;-73
2023/04/30 08:40:26;;;;;;;7.43;5.22;;;17.90;74.60;;;;;;5110245;28;20089;-73
2023/04/30 08:43:14;;;;;;;8.38;4.95;;;17.70;74.40;;;;;;5106521;28;20051;-73
2023/04/30 08:45:40;;;;;;;7.57;5.10;;;17.50;75.80;;;;;;5106806;28;20031;-73
2023/04/30 08:48:10;;;;;;;7.45;5.10;;;17.40;76.40;;;;;;5107325;28;20400;-73
2023/04/30 08:50:35;;;;;;;6.88;4.90;;;17.30;76.50;;;;;;5108418;28;20367;-73
2023/04/30 08:53:02;;;;;;;9.55;4.53;;;17.40;77.40;;;;;;5108833;28;20051;-75
2023/04/30 08:55:28;;;;;;;7.75;4.85;;;17.60;76.80;;;;;;5096336;28;20023;-73
2023/04/30 08:57:54;;;;;;;7.43;4.50;;;17.80;75.50;;;;;;5087801;28;20032;-74
2023/04/30 09:00:19;;;;;;;8.80;4.85;;;18.10;74.00;;;;;;5111070;28;20168;-74
2023/04/30 09:02:47;;;;;;;6.22;4.22;;;17.60;75.00;;;;;;5106166;28;20035;-73
2023/04/30 09:05:16;;;;;;;6.60;4.35;;;17.20;75.20;;;;;;5091086;28;20380;-73
2023/04/30 09:07:45;;;;;;;7.07;4.78;;;16.80;77.10;;;;;;5107753;28;20039;-73
2023/04/30 09:10:24;;;;;;;7.20;4.57;;;16.60;77.60;;;;;;5111250;28;20028;-73
2023/04/30 09:13:09;;;;;;;6.13;3.90;;;16.60;77.90;;;;;;5103410;28;20022;-74
2023/04/30 09:15:36;;;;;;;6.22;4.40;;;17.50;74.20;;;;;;5109622;28;20034;-74
2023/04/30 09:18:13;;;;;;;5.30;3.80;;;17.40;73.80;;;;;;5085189;28;20312;-73
2023/04/30 09:20:56;;;;;;;6.18;3.95;;;16.80;76.30;;;;;;5111416;28;20027;-73
2023/04/30 09:23:22;;;;;;;7.55;4.50;;;16.50;76.90;;;;;;5109831;28;20301;-73
2023/04/30 09:25:48;;;;;;;8.45;4.32;;;16.40;75.40;;;;;;5106674;28;20104;-73
2023/04/30 09:28:14;;;;;;;5.70;3.80;;;16.30;77.70;;;;;;5107034;28;20116;-73
2023/04/30 09:30:41;;;;;;;5.72;3.63;;;16.40;76.50;;;;;;5108055;28;20046;-74
2023/04/30 09:33:07;;;;;;;5.60;3.42;;;16.40;75.50;;;;;;5106011;28;20027;-73
2023/04/30 09:35:34;;;;;;;5.38;3.20;;;16.50;77.60;;;;;;5108815;28;20051;-73
2023/04/30 09:38:03;;;;;;;4.20;2.50;;;17.00;77.00;;;;;;5111200;28;20038;-73
2023/04/30 09:40:36;;;;;;;6.18;2.78;;;16.90;74.50;;;;;;5111440;28;20106;-73
2023/04/30 09:43:05;;;;;;;5.55;3.38;;;16.70;74.20;;;;;;5103484;28;20054;-73
2023/04/30 09:45:42;;;;;;;5.45;3.22;;;16.10;75.80;;;;;;5107991;28;20428;-73
2023/04/30 09:48:14;;;;;;;6.05;3.38;;;15.90;77.80;;;;;;5110878;28;20483;-73
2023/04/30 09:50:40;;;;;;;6.15;3.75;;;16.10;75.40;;;;;;5113036;28;20031;-73
2023/04/30 09:53:23;;;;;;;5.50;3.22;;;16.40;75.90;;;;;;5102466;28;20020;-73
2023/04/30 09:55:50;;;;;;;7.13;3.50;;;16.70;75.80;;;;;;5103825;28;20039;-72
2023/04/30 09:58:18;;;;;;;5.40;3.40;;;16.90;74.50;;;;;;5110865;28;20289;-73
2023/04/30 10:00:50;;;;;;;5.40;3.03;;;17.20;73.40;;;;;;5110230;28;20028;-73
2023/04/30 10:03:16;;;;;;;4.93;2.90;;;17.30;72.80;;;;;;5112742;28;20486;-72
2023/04/30 10:05:46;;;;;;;5.18;3.20;;;17.50;73.40;;;;;;5109536;28;20032;-73
2023/04/30 10:08:40;;;;;;;4.65;2.97;;;17.40;73.00;;;;;;5105367;28;20348;-73
2023/04/30 10:11:07;;;;;;;6.43;3.33;;;17.40;72.30;;;;;;5106226;28;20035;-73
2023/04/30 10:14:00;;;;;;;6.32;3.65;;;17.20;73.20;;;;;;5108989;28;20382;-73
2023/04/30 10:16:53;;;;;;;5.10;3.20;;;16.90;72.50;;;;;;5107220;28;20055;-73
2023/04/30 10:19:23;;;;;;;5.88;3.30;;;16.20;73.50;;;;;;5092463;28;20110;-73
2023/04/30 10:21:49;;;;;;;6.32;3.20;;;15.90;75.60;;;;;;5103547;28;20023;-73
2023/04/30 10:24:20;;;;;;;6.28;3.60;;;15.90;75.50;;;;;;5108029;28;20421;-73
2023/04/30 10:26:49;;;;;;;5.50;3.17;;;15.80;76.00;;;;;;5073234;28;20103;-73
2023/04/30 10:29:16;;;;;;;6.15;3.25;;;15.70;75.80;;;;;;5107797;28;20105;-73
2023/04/30 10:31:48;;;;;;;5.78;3.40;;;15.80;75.50;;;;;;5109759;28;20015;-73
2023/04/30 10:34:48;;;;;;;6.03;3.22;;;15.90;76.40;;;;;;5105263;28;20092;-73
2023/04/30 10:37:27;;;;;;;6.18;3.20;;;16.20;76.00;;;;;;5099331;28;20028;-73
2023/04/30 10:39:53;;;;;;;5.00;3.30;;;16.40;76.80;;;;;;5116176;27;20046;-72
2023/04/30 10:42:19;;;;;;;4.82;3.25;;;16.50;74.00;;;;;;5111063;27;20035;-72
2023/04/30 10:44:47;;;;;;;4.80;3.10;;;16.50;76.30;;;;;;5107661;28;21470;-72
2023/04/30 10:47:13;;;;;;;4.60;3.10;;;16.70;76.20;;;;;;5110992;27;20419;-72
2023/04/30 10:49:41;;;;;;;5.03;3.17;;;16.90;74.80;;;;;;5106871;28;20082;-72
2023/04/30 10:52:10;;;;;;;5.03;2.83;;;17.10;73.30;;;;;;5121093;27;20024;-72
2023/04/30 10:54:36;;;;;;;5.25;2.97;;;17.30;72.50;;;;;;5113953;27;20027;-72
2023/04/30 10:57:10;;;;;;;5.10;3.03;;;17.60;72.50;;;;;;5118229;28;20024;-75
2023/04/30 10:59:36;;;;;;;4.95;2.80;;;17.70;71.70;;;;;;5112910;28;20081;-72
2023/04/30 11:02:02;;;;;;;5.78;3.80;;;17.60;71.20;;;;;;5116430;28;20039;-72
2023/04/30 11:04:28;;;;;;;6.32;3.05;;;17.30;70.30;;;;;;5115354;28;20395;-72
2023/04/30 11:07:09;;;;;;;5.97;3.30;;;16.70;72.60;;;;;;5117676;28;20045;-72
2023/04/30 11:09:43;;;;;;;7.13;4.40;;;17.20;73.60;;;;;;5117014;28;20032;-71
2023/04/30 11:12:27;;;;;;;5.38;3.47;;;17.60;71.60;;;;;;5108099;28;20024;-72
2023/04/30 11:15:17;;;;;;;7.05;3.13;;;17.90;74.00;;;;;;5113321;27;20420;-72
2023/04/30 11:17:46;;;;;;;6.93;3.63;;;18.60;71.30;;;;;;5101386;28;20126;-73
2023/04/30 11:20:13;;;;;;;9.25;4.40;;;19.00;70.30;;;;;;5110332;28;20073;-73
2023/04/30 11:22:39;;;;;;;6.40;3.70;;;18.90;68.80;;;;;;5107100;28;20308;-72
2023/04/30 11:25:08;;;;;;;6.20;4.07;;;18.20;70.30;;;;;;5115441;28;20055;-72
2023/04/30 11:27:35;;;;;;;6.78;3.90;;;18.00;70.80;;;;;;5109597;28;20312;-72
2023/04/30 11:30:04;;;;;;;8.07;4.28;;;17.90;72.00;;;;;;5107002;28;20019;-72
2023/04/30 11:32:34;;;;;;;6.05;3.75;;;17.60;70.30;;;;;;5109822;28;20028;-73
2023/04/30 11:35:05;;;;;;;7.47;4.38;;;17.20;71.60;;;;;;5098376;28;20024;-72
2023/04/30 11:37:35;;;;;;;6.20;3.47;;;17.20;71.40;;;;;;5105883;28;20047;-72
2023/04/30 11:40:02;;;;;;;7.03;3.60;;;17.50;71.50;;;;;;5115065;28;20107;-72
2023/04/30 11:42:30;;;;;;;6.30;3.53;;;18.20;72.00;;;;;;5095376;28;20598;-72
2023/04/30 11:45:07;;;;;;;6.32;3.50;;;18.90;69.20;;;;;;5099970;27;20024;-72
2023/04/30 11:47:40;;;;;;;8.07;3.67;;;19.40;69.80;;;;;;5098630;27;20028;-74
2023/04/30 11:50:08;;;;;;;5.60;3.38;;;19.60;66.60;;;;;;5104127;27;20434;-73
2023/04/30 11:52:38;;;;;;;5.78;3.40;;;19.70;69.20;;;;;;5096497;28;20053;-73
2023/04/30 11:55:14;;;;;;;7.22;2.80;;;19.70;66.00;;;;;;5096577;28;20024;-73
2023/04/30 11:57:44;;;;;;;4.80;3.03;;;19.60;67.20;;;;;;5118395;27;20047;-73
2023/04/30 12:00:15;;;;;;;5.90;2.92;;;19.50;67.00;;;;;;5125447;27;20032;-73
2023/04/30 12:02:42;;;;;;;5.10;3.05;;;19.60;67.70;;;;;;5116436;28;20063;-73
2023/04/30 12:05:22;;;;;;;4.97;3.10;;;19.60;66.30;;;;;;5097458;28;20073;-73
2023/04/30 12:07:53;;;;;;;6.20;3.17;;;19.40;67.20;;;;;;5114688;28;20048;-72
2023/04/30 12:10:19;;;;;;;4.78;2.42;;;19.70;65.40;;;;;;5099055;28;20323;-73
2023/04/30 12:12:50;;;;;;;5.55;2.90;;;20.30;67.60;;;;;;5115966;27;20386;-72
2023/04/30 12:15:22;;;;;;;4.90;3.10;;;20.80;65.30;;;;;;5097521;28;20024;-72
2023/04/30 12:17:47;;;;;;;6.20;2.92;;;19.40;64.80;;;;;;5115779;27;20016;-72
2023/04/30 12:20:14;;;;;;;5.45;3.10;;;18.80;67.80;;;;;;5116834;28;20016;-72
2023/04/30 12:22:41;;;;;;;4.47;2.97;;;18.80;69.70;;;;;;5097613;28;20446;-72
2023/04/30 12:25:10;;;;;;;4.75;2.80;;;19.20;69.00;;;;;;5096142;28;20066;-72
2023/04/30 12:27:36;;;;;;;5.47;2.83;;;19.60;68.50;;;;;;5115687;28;20103;-72
2023/04/30 12:30:09;;;;;;;4.90;3.22;;;20.00;67.00;;;;;;5116832;28;20030;-72
2023/04/30 12:32:43;;;;;;;5.80;3.43;;;20.40;66.30;;;;;;5116627;28;20027;-72
2023/04/30 12:35:17;;;;;;;;;;;19.40;66.60;;;;;;5119282;27;20289;-73
2023/04/30 12:37:49;;;;;;;4.68;2.53;;;19.50;67.90;;;;;;5095884;28;19904;-73
2023/04/30 12:40:15;;;;;;;4.45;2.75;;;19.90;66.80;;;;;;5106480;28;20074;-73
2023/04/30 12:42:42;;;;;;;6.28;3.08;;;19.50;69.50;;;;;;5116346;28;20932;-73
2023/04/30 12:45:08;;;;;;;5.18;3.05;;;19.60;66.40;;;;;;5099952;28;20028;-73
2023/04/30 12:47:39;;;;;;;7.20;2.90;;;19.70;67.90;;;;;;5117297;28;20036;-73